Terminal Aerodrome Forecast
Issued by NWS

Home | Current Version | Previous Version | Text Only | Print | Product List | Glossary On
Versions: 1 2 3 4 5 6 7 8 9 10 11 12 13 14 15 16 17 18 19 20 21 22 23 24
000
FTUS41 KOKX 012300
TAFHPN
TAF
KHPN 012327Z 0200/0224 17003KT 1/2SM SN FZFG VV004
     FM020200 VRB04KT 3SM -SN BR SCT004 BKN010
      TEMPO 0202/0206 BKN004
     FM020600 VRB03KT 4SM BR OVC010
     FM020900 29006KT P6SM SCT015 BKN025
     FM021200 30010G17KT P6SM SCT025 BKN050
     FM021500 31015G25KT P6SM FEW050 SCT250
     FM022300 31014KT P6SM SCT250
      AMD NOT SKED=

USA.gov is the U.S. government's official web portal to all federal, state and local government web resources and services.